sensor_id;sensor_type;location;lat;lon;timestamp;P1;durP1;ratioP1;P2;durP2;ratioP2
31224;SDS011;17847;31.524;74.366;2023-05-10T00:01:55;41.40;;;24.55;;
31224;SDS011;17847;31.524;74.366;2023-05-10T00:04:24;37.60;;;23.85;;
31224;SDS011;17847;31.524;74.366;2023-05-10T00:06:55;51.97;;;24.60;;
31224;SDS011;17847;31.524;74.366;2023-05-10T00:09:25;45.50;;;23.85;;
31224;SDS011;17847;31.524;74.366;2023-05-10T00:11:54;43.70;;;22.98;;
31224;SDS011;17847;31.524;74.366;2023-05-10T00:14:26;45.22;;;24.90;;
31224;SDS011;17847;31.524;74.366;2023-05-10T00:16:55;42.70;;;22.00;;
31224;SDS011;17847;31.524;74.366;2023-05-10T00:19:25;39.45;;;21.83;;
31224;SDS011;17847;31.524;74.366;2023-05-10T00:21:54;36.95;;;21.92;;
31224;SDS011;17847;31.524;74.366;2023-05-10T00:24:24;34.25;;;21.05;;
31224;SDS011;17847;31.524;74.366;2023-05-10T00:26:53;41.63;;;22.02;;
31224;SDS011;17847;31.524;74.366;2023-05-10T00:29:23;36.45;;;21.85;;
31224;SDS011;17847;31.524;74.366;2023-05-10T00:31:54;36.15;;;21.75;;
31224;SDS011;17847;31.524;74.366;2023-05-10T00:34:24;40.22;;;21.75;;
31224;SDS011;17847;31.524;74.366;2023-05-10T00:36:54;36.63;;;21.77;;
31224;SDS011;17847;31.524;74.366;2023-05-10T00:39:23;42.53;;;21.17;;
31224;SDS011;17847;31.524;74.366;2023-05-10T00:41:52;40.97;;;21.40;;
31224;SDS011;17847;31.524;74.366;2023-05-10T00:44:21;39.67;;;22.80;;
31224;SDS011;17847;31.524;74.366;2023-05-10T00:46:51;40.35;;;20.38;;
31224;SDS011;17847;31.524;74.366;2023-05-10T00:49:21;32.88;;;20.20;;
31224;SDS011;17847;31.524;74.366;2023-05-10T00:51:51;35.88;;;19.40;;
31224;SDS011;17847;31.524;74.366;2023-05-10T00:54:20;32.05;;;17.98;;
31224;SDS011;17847;31.524;74.366;2023-05-10T00:56:50;35.90;;;17.80;;
31224;SDS011;17847;31.524;74.366;2023-05-10T00:59:20;35.13;;;16.50;;
31224;SDS011;17847;31.524;74.366;2023-05-10T01:01:50;28.40;;;15.35;;
31224;SDS011;17847;31.524;74.366;2023-05-10T01:04:19;28.02;;;14.60;;
31224;SDS011;17847;31.524;74.366;2023-05-10T01:06:54;29.58;;;14.20;;
31224;SDS011;17847;31.524;74.366;2023-05-10T01:12:25;26.48;;;12.77;;
31224;SDS011;17847;31.524;74.366;2023-05-10T01:14:54;27.92;;;12.70;;
31224;SDS011;17847;31.524;74.366;2023-05-10T01:17:24;22.88;;;11.70;;
31224;SDS011;17847;31.524;74.366;2023-05-10T01:19:54;25.52;;;11.40;;
31224;SDS011;17847;31.524;74.366;2023-05-10T01:28:23;28.35;;;12.93;;
31224;SDS011;17847;31.524;74.366;2023-05-10T01:31:28;37.53;;;14.68;;
31224;SDS011;17847;31.524;74.366;2023-05-10T01:34:25;32.47;;;14.40;;
31224;SDS011;17847;31.524;74.366;2023-05-10T01:37:06;29.95;;;15.13;;
31224;SDS011;17847;31.524;74.366;2023-05-10T01:39:44;77.80;;;16.52;;
31224;SDS011;17847;31.524;74.366;2023-05-10T01:42:21;38.15;;;15.52;;
31224;SDS011;17847;31.524;74.366;2023-05-10T01:47:53;33.60;;;16.58;;
31224;SDS011;17847;31.524;74.366;2023-05-10T01:50:32;37.95;;;17.35;;
31224;SDS011;17847;31.524;74.366;2023-05-10T01:53:06;35.15;;;17.58;;
31224;SDS011;17847;31.524;74.366;2023-05-10T01:55:44;38.55;;;16.90;;
31224;SDS011;17847;31.524;74.366;2023-05-10T01:58:19;31.95;;;17.33;;
31224;SDS011;17847;31.524;74.366;2023-05-10T02:00:51;32.15;;;17.33;;
31224;SDS011;17847;31.524;74.366;2023-05-10T02:03:23;42.58;;;15.57;;
31224;SDS011;17847;31.524;74.366;2023-05-10T02:05:54;29.90;;;15.38;;
31224;SDS011;17847;31.524;74.366;2023-05-10T02:08:26;28.20;;;15.77;;
31224;SDS011;17847;31.524;74.366;2023-05-10T02:10:56;31.77;;;13.88;;
31224;SDS011;17847;31.524;74.366;2023-05-10T02:13:27;34.10;;;16.33;;
31224;SDS011;17847;31.524;74.366;2023-05-10T02:15:58;27.77;;;15.63;;
31224;SDS011;17847;31.524;74.366;2023-05-10T02:18:29;33.53;;;15.65;;
31224;SDS011;17847;31.524;74.366;2023-05-10T02:21:02;33.65;;;17.23;;
31224;SDS011;17847;31.524;74.366;2023-05-10T02:23:32;32.08;;;16.75;;
31224;SDS011;17847;31.524;74.366;2023-05-10T02:26:03;31.92;;;17.35;;
31224;SDS011;17847;31.524;74.366;2023-05-10T02:28:35;29.92;;;18.13;;
31224;SDS011;17847;31.524;74.366;2023-05-10T02:31:05;36.83;;;19.67;;
31224;SDS011;17847;31.524;74.366;2023-05-10T02:33:38;30.45;;;18.40;;
31224;SDS011;17847;31.524;74.366;2023-05-10T02:36:09;43.55;;;19.15;;
31224;SDS011;17847;31.524;74.366;2023-05-10T02:38:39;47.17;;;21.25;;
31224;SDS011;17847;31.524;74.366;2023-05-10T02:41:09;32.25;;;20.73;;
31224;SDS011;17847;31.524;74.366;2023-05-10T02:43:40;35.50;;;19.77;;
31224;SDS011;17847;31.524;74.366;2023-05-10T02:46:12;35.78;;;18.52;;
31224;SDS011;17847;31.524;74.366;2023-05-10T02:48:41;30.13;;;15.98;;
31224;SDS011;17847;31.524;74.366;2023-05-10T02:51:10;32.28;;;16.30;;
31224;SDS011;17847;31.524;74.366;2023-05-10T02:53:43;28.60;;;16.50;;
31224;SDS011;17847;31.524;74.366;2023-05-10T02:56:25;35.08;;;17.17;;
31224;SDS011;17847;31.524;74.366;2023-05-10T02:58:58;29.33;;;15.75;;
31224;SDS011;17847;31.524;74.366;2023-05-10T03:01:28;32.33;;;14.73;;
31224;SDS011;17847;31.524;74.366;2023-05-10T03:03:58;26.98;;;13.23;;
31224;SDS011;17847;31.524;74.366;2023-05-10T03:06:27;25.60;;;12.65;;
31224;SDS011;17847;31.524;74.366;2023-05-10T03:08:57;26.40;;;12.20;;
31224;SDS011;17847;31.524;74.366;2023-05-10T03:17:35;27.35;;;11.65;;
31224;SDS011;17847;31.524;74.366;2023-05-10T03:20:12;24.75;;;10.20;;
31224;SDS011;17847;31.524;74.366;2023-05-10T03:22:54;22.67;;;10.48;;
31224;SDS011;17847;31.524;74.366;2023-05-10T03:25:29;23.98;;;10.18;;
31224;SDS011;17847;31.524;74.366;2023-05-10T03:28:02;14.48;;;8.98;;
31224;SDS011;17847;31.524;74.366;2023-05-10T03:30:34;24.83;;;9.15;;
31224;SDS011;17847;31.524;74.366;2023-05-10T03:33:06;15.68;;;8.57;;
31224;SDS011;17847;31.524;74.366;2023-05-10T03:38:08;21.40;;;9.02;;
31224;SDS011;17847;31.524;74.366;2023-05-10T03:40:37;15.15;;;7.97;;
31224;SDS011;17847;31.524;74.366;2023-05-10T03:43:07;17.65;;;7.65;;
31224;SDS011;17847;31.524;74.366;2023-05-10T03:45:39;14.48;;;6.57;;
31224;SDS011;17847;31.524;74.366;2023-05-10T03:48:08;18.58;;;6.85;;
31224;SDS011;17847;31.524;74.366;2023-05-10T03:50:37;11.27;;;7.10;;
31224;SDS011;17847;31.524;74.366;2023-05-10T03:53:06;14.95;;;7.25;;
31224;SDS011;17847;31.524;74.366;2023-05-10T03:55:36;15.30;;;7.45;;
31224;SDS011;17847;31.524;74.366;2023-05-10T03:58:05;15.27;;;7.00;;
31224;SDS011;17847;31.524;74.366;2023-05-10T04:00:34;16.23;;;7.82;;
31224;SDS011;17847;31.524;74.366;2023-05-10T04:03:04;9.93;;;7.03;;
31224;SDS011;17847;31.524;74.366;2023-05-10T04:05:33;10.20;;;6.93;;
31224;SDS011;17847;31.524;74.366;2023-05-10T04:08:02;10.95;;;6.32;;
31224;SDS011;17847;31.524;74.366;2023-05-10T04:10:32;11.88;;;5.70;;
31224;SDS011;17847;31.524;74.366;2023-05-10T04:13:02;12.35;;;6.10;;
31224;SDS011;17847;31.524;74.366;2023-05-10T04:15:32;8.45;;;5.50;;
31224;SDS011;17847;31.524;74.366;2023-05-10T04:18:01;12.75;;;6.18;;
31224;SDS011;17847;31.524;74.366;2023-05-10T04:20:34;11.98;;;6.50;;
31224;SDS011;17847;31.524;74.366;2023-05-10T04:23:03;15.07;;;7.20;;
31224;SDS011;17847;31.524;74.366;2023-05-10T04:25:33;21.27;;;8.45;;
31224;SDS011;17847;31.524;74.366;2023-05-10T04:28:04;17.10;;;8.02;;
31224;SDS011;17847;31.524;74.366;2023-05-10T04:30:33;14.82;;;6.93;;
31224;SDS011;17847;31.524;74.366;2023-05-10T04:33:02;16.67;;;7.00;;
31224;SDS011;17847;31.524;74.366;2023-05-10T04:35:32;15.63;;;7.28;;
31224;SDS011;17847;31.524;74.366;2023-05-10T04:38:02;15.00;;;6.25;;
31224;SDS011;17847;31.524;74.366;2023-05-10T04:40:31;15.23;;;6.75;;
31224;SDS011;17847;31.524;74.366;2023-05-10T04:43:01;12.75;;;6.65;;
31224;SDS011;17847;31.524;74.366;2023-05-10T04:45:30;23.50;;;6.47;;
31224;SDS011;17847;31.524;74.366;2023-05-10T04:47:59;14.70;;;5.43;;
31224;SDS011;17847;31.524;74.366;2023-05-10T04:50:28;10.40;;;4.78;;
31224;SDS011;17847;31.524;74.366;2023-05-10T04:52:58;11.68;;;4.45;;
31224;SDS011;17847;31.524;74.366;2023-05-10T04:55:27;11.85;;;4.90;;
31224;SDS011;17847;31.524;74.366;2023-05-10T04:57:57;10.43;;;4.55;;
31224;SDS011;17847;31.524;74.366;2023-05-10T05:00:27;12.00;;;4.80;;
31224;SDS011;17847;31.524;74.366;2023-05-10T05:02:56;9.77;;;4.93;;
31224;SDS011;17847;31.524;74.366;2023-05-10T05:05:25;16.55;;;5.45;;
31224;SDS011;17847;31.524;74.366;2023-05-10T05:07:55;16.00;;;6.03;;
31224;SDS011;17847;31.524;74.366;2023-05-10T05:10:24;18.05;;;5.55;;
31224;SDS011;17847;31.524;74.366;2023-05-10T05:12:54;13.13;;;5.40;;
31224;SDS011;17847;31.524;74.366;2023-05-10T05:15:23;11.05;;;5.43;;
31224;SDS011;17847;31.524;74.366;2023-05-10T05:17:52;15.88;;;6.00;;
31224;SDS011;17847;31.524;74.366;2023-05-10T05:20:22;9.82;;;5.63;;
31224;SDS011;17847;31.524;74.366;2023-05-10T05:22:51;15.93;;;6.15;;
31224;SDS011;17847;31.524;74.366;2023-05-10T05:25:20;21.15;;;6.78;;
31224;SDS011;17847;31.524;74.366;2023-05-10T05:27:50;9.80;;;5.55;;
31224;SDS011;17847;31.524;74.366;2023-05-10T05:30:20;11.18;;;5.65;;
31224;SDS011;17847;31.524;74.366;2023-05-10T05:32:49;9.52;;;4.57;;
31224;SDS011;17847;31.524;74.366;2023-05-10T05:35:18;13.88;;;4.35;;
31224;SDS011;17847;31.524;74.366;2023-05-10T05:37:48;13.95;;;4.18;;
31224;SDS011;17847;31.524;74.366;2023-05-10T05:40:18;9.63;;;4.20;;
31224;SDS011;17847;31.524;74.366;2023-05-10T05:42:48;6.57;;;4.63;;
31224;SDS011;17847;31.524;74.366;2023-05-10T05:45:18;9.10;;;4.10;;
31224;SDS011;17847;31.524;74.366;2023-05-10T05:47:47;11.27;;;4.55;;
31224;SDS011;17847;31.524;74.366;2023-05-10T05:50:16;9.60;;;4.40;;
31224;SDS011;17847;31.524;74.366;2023-05-10T05:52:46;7.80;;;4.30;;
31224;SDS011;17847;31.524;74.366;2023-05-10T05:55:15;12.05;;;4.15;;
31224;SDS011;17847;31.524;74.366;2023-05-10T05:57:44;11.50;;;3.85;;
31224;SDS011;17847;31.524;74.366;2023-05-10T06:00:14;11.80;;;4.05;;
31224;SDS011;17847;31.524;74.366;2023-05-10T06:02:44;8.10;;;3.70;;
31224;SDS011;17847;31.524;74.366;2023-05-10T06:05:13;11.00;;;4.25;;
31224;SDS011;17847;31.524;74.366;2023-05-10T06:07:43;6.97;;;3.70;;
31224;SDS011;17847;31.524;74.366;2023-05-10T06:10:12;14.43;;;3.80;;
31224;SDS011;17847;31.524;74.366;2023-05-10T06:12:41;5.78;;;3.33;;
31224;SDS011;17847;31.524;74.366;2023-05-10T06:15:11;7.43;;;3.42;;
31224;SDS011;17847;31.524;74.366;2023-05-10T06:17:41;12.70;;;3.92;;
31224;SDS011;17847;31.524;74.366;2023-05-10T06:20:11;12.63;;;4.57;;
31224;SDS011;17847;31.524;74.366;2023-05-10T06:22:41;12.23;;;4.47;;
31224;SDS011;17847;31.524;74.366;2023-05-10T06:25:11;10.00;;;4.68;;
31224;SDS011;17847;31.524;74.366;2023-05-10T06:27:40;8.32;;;4.53;;
31224;SDS011;17847;31.524;74.366;2023-05-10T06:30:12;9.70;;;4.20;;
31224;SDS011;17847;31.524;74.366;2023-05-10T06:32:43;10.57;;;3.63;;
31224;SDS011;17847;31.524;74.366;2023-05-10T06:35:14;11.52;;;4.57;;
31224;SDS011;17847;31.524;74.366;2023-05-10T06:37:45;12.15;;;4.00;;
31224;SDS011;17847;31.524;74.366;2023-05-10T06:40:15;8.13;;;4.07;;
31224;SDS011;17847;31.524;74.366;2023-05-10T06:42:45;8.45;;;4.22;;
31224;SDS011;17847;31.524;74.366;2023-05-10T06:45:16;12.70;;;3.72;;
31224;SDS011;17847;31.524;74.366;2023-05-10T06:47:46;10.73;;;3.97;;
31224;SDS011;17847;31.524;74.366;2023-05-10T06:50:16;12.93;;;4.18;;
31224;SDS011;17847;31.524;74.366;2023-05-10T06:52:45;11.98;;;3.85;;
31224;SDS011;17847;31.524;74.366;2023-05-10T06:55:14;13.25;;;3.83;;
31224;SDS011;17847;31.524;74.366;2023-05-10T06:57:44;13.40;;;4.15;;
31224;SDS011;17847;31.524;74.366;2023-05-10T07:00:13;17.90;;;3.65;;
31224;SDS011;17847;31.524;74.366;2023-05-10T07:02:44;9.27;;;3.63;;
31224;SDS011;17847;31.524;74.366;2023-05-10T07:05:13;12.82;;;3.78;;
31224;SDS011;17847;31.524;74.366;2023-05-10T07:07:43;21.35;;;5.57;;
31224;SDS011;17847;31.524;74.366;2023-05-10T07:10:13;15.77;;;4.78;;
31224;SDS011;17847;31.524;74.366;2023-05-10T07:12:42;10.93;;;5.05;;
31224;SDS011;17847;31.524;74.366;2023-05-10T07:15:12;16.73;;;5.15;;
31224;SDS011;17847;31.524;74.366;2023-05-10T07:17:41;12.60;;;4.50;;
31224;SDS011;17847;31.524;74.366;2023-05-10T07:20:12;16.17;;;5.05;;
31224;SDS011;17847;31.524;74.366;2023-05-10T07:22:42;12.75;;;5.00;;
31224;SDS011;17847;31.524;74.366;2023-05-10T07:25:11;10.02;;;4.80;;
31224;SDS011;17847;31.524;74.366;2023-05-10T07:27:41;12.15;;;5.18;;
31224;SDS011;17847;31.524;74.366;2023-05-10T07:30:11;12.13;;;5.00;;
31224;SDS011;17847;31.524;74.366;2023-05-10T07:32:41;10.48;;;4.97;;
31224;SDS011;17847;31.524;74.366;2023-05-10T07:35:11;18.10;;;6.38;;
31224;SDS011;17847;31.524;74.366;2023-05-10T07:37:40;17.38;;;6.38;;
31224;SDS011;17847;31.524;74.366;2023-05-10T07:40:09;15.07;;;5.70;;
31224;SDS011;17847;31.524;74.366;2023-05-10T07:42:39;13.27;;;5.05;;
31224;SDS011;17847;31.524;74.366;2023-05-10T07:45:08;12.57;;;4.78;;
31224;SDS011;17847;31.524;74.366;2023-05-10T07:47:38;11.77;;;5.00;;
31224;SDS011;17847;31.524;74.366;2023-05-10T07:50:07;17.85;;;5.00;;
31224;SDS011;17847;31.524;74.366;2023-05-10T07:52:37;18.08;;;5.50;;
31224;SDS011;17847;31.524;74.366;2023-05-10T07:55:06;18.75;;;5.57;;
31224;SDS011;17847;31.524;74.366;2023-05-10T07:57:36;12.65;;;5.90;;
31224;SDS011;17847;31.524;74.366;2023-05-10T08:00:06;18.60;;;5.75;;
31224;SDS011;17847;31.524;74.366;2023-05-10T08:02:39;9.70;;;6.20;;
31224;SDS011;17847;31.524;74.366;2023-05-10T08:05:10;13.85;;;5.22;;
31224;SDS011;17847;31.524;74.366;2023-05-10T08:07:40;13.05;;;4.45;;
31224;SDS011;17847;31.524;74.366;2023-05-10T08:10:09;11.25;;;4.38;;
31224;SDS011;17847;31.524;74.366;2023-05-10T08:12:42;17.35;;;3.90;;
31224;SDS011;17847;31.524;74.366;2023-05-10T08:15:11;11.95;;;4.25;;
31224;SDS011;17847;31.524;74.366;2023-05-10T08:17:40;10.15;;;3.95;;
31224;SDS011;17847;31.524;74.366;2023-05-10T08:20:09;7.25;;;3.78;;
31224;SDS011;17847;31.524;74.366;2023-05-10T08:22:41;14.77;;;4.10;;
31224;SDS011;17847;31.524;74.366;2023-05-10T08:25:10;11.60;;;3.60;;
31224;SDS011;17847;31.524;74.366;2023-05-10T08:27:39;10.57;;;3.38;;
31224;SDS011;17847;31.524;74.366;2023-05-10T08:30:08;13.32;;;5.18;;
31224;SDS011;17847;31.524;74.366;2023-05-10T08:32:39;13.60;;;4.07;;
31224;SDS011;17847;31.524;74.366;2023-05-10T08:35:08;12.18;;;3.25;;
31224;SDS011;17847;31.524;74.366;2023-05-10T08:37:37;9.52;;;3.50;;
31224;SDS011;17847;31.524;74.366;2023-05-10T08:40:11;20.45;;;4.47;;
31224;SDS011;17847;31.524;74.366;2023-05-10T08:42:43;11.95;;;4.25;;
31224;SDS011;17847;31.524;74.366;2023-05-10T08:45:23;9.48;;;3.95;;
31224;SDS011;17847;31.524;74.366;2023-05-10T08:47:56;11.38;;;3.80;;
31224;SDS011;17847;31.524;74.366;2023-05-10T08:50:28;9.10;;;3.83;;
31224;SDS011;17847;31.524;74.366;2023-05-10T08:53:00;16.88;;;3.80;;
31224;SDS011;17847;31.524;74.366;2023-05-10T08:55:32;10.02;;;3.90;;
31224;SDS011;17847;31.524;74.366;2023-05-10T08:58:05;14.13;;;3.70;;
31224;SDS011;17847;31.524;74.366;2023-05-10T09:00:35;10.40;;;4.18;;
31224;SDS011;17847;31.524;74.366;2023-05-10T09:03:06;11.00;;;3.65;;
31224;SDS011;17847;31.524;74.366;2023-05-10T09:05:35;10.30;;;3.97;;
31224;SDS011;17847;31.524;74.366;2023-05-10T09:08:05;8.77;;;3.97;;
31224;SDS011;17847;31.524;74.366;2023-05-10T09:10:37;8.32;;;3.90;;
31224;SDS011;17847;31.524;74.366;2023-05-10T09:13:09;19.60;;;4.45;;
31224;SDS011;17847;31.524;74.366;2023-05-10T09:15:43;15.18;;;4.45;;
31224;SDS011;17847;31.524;74.366;2023-05-10T09:18:13;13.20;;;4.32;;
31224;SDS011;17847;31.524;74.366;2023-05-10T09:20:43;12.27;;;4.38;;
31224;SDS011;17847;31.524;74.366;2023-05-10T09:23:13;8.77;;;4.22;;
31224;SDS011;17847;31.524;74.366;2023-05-10T09:25:42;9.80;;;4.32;;
31224;SDS011;17847;31.524;74.366;2023-05-10T09:28:12;12.35;;;4.20;;
31224;SDS011;17847;31.524;74.366;2023-05-10T09:30:41;11.65;;;4.30;;
31224;SDS011;17847;31.524;74.366;2023-05-10T09:33:11;11.63;;;4.22;;
31224;SDS011;17847;31.524;74.366;2023-05-10T09:35:40;14.75;;;5.07;;
31224;SDS011;17847;31.524;74.366;2023-05-10T09:38:11;15.65;;;4.78;;
31224;SDS011;17847;31.524;74.366;2023-05-10T09:40:40;14.23;;;4.93;;
31224;SDS011;17847;31.524;74.366;2023-05-10T09:43:23;8.30;;;4.07;;
31224;SDS011;17847;31.524;74.366;2023-05-10T09:45:52;14.40;;;4.90;;
31224;SDS011;17847;31.524;74.366;2023-05-10T09:48:23;12.27;;;4.00;;
31224;SDS011;17847;31.524;74.366;2023-05-10T09:50:57;13.98;;;4.43;;
31224;SDS011;17847;31.524;74.366;2023-05-10T09:53:26;16.10;;;4.30;;
31224;SDS011;17847;31.524;74.366;2023-05-10T09:55:56;9.32;;;4.28;;
31224;SDS011;17847;31.524;74.366;2023-05-10T09:58:25;9.52;;;3.75;;
31224;SDS011;17847;31.524;74.366;2023-05-10T10:00:55;11.10;;;4.15;;
31224;SDS011;17847;31.524;74.366;2023-05-10T10:03:25;11.55;;;4.07;;
31224;SDS011;17847;31.524;74.366;2023-05-10T10:05:56;14.25;;;4.35;;
31224;SDS011;17847;31.524;74.366;2023-05-10T10:08:26;16.75;;;4.30;;
31224;SDS011;17847;31.524;74.366;2023-05-10T10:10:56;12.82;;;4.07;;
31224;SDS011;17847;31.524;74.366;2023-05-10T10:13:26;12.18;;;3.83;;
31224;SDS011;17847;31.524;74.366;2023-05-10T10:15:55;10.70;;;3.60;;
31224;SDS011;17847;31.524;74.366;2023-05-10T10:18:25;8.90;;;3.75;;
31224;SDS011;17847;31.524;74.366;2023-05-10T10:20:57;13.40;;;3.80;;
31224;SDS011;17847;31.524;74.366;2023-05-10T10:23:28;13.32;;;3.58;;
31224;SDS011;17847;31.524;74.366;2023-05-10T10:25:57;10.50;;;3.75;;
31224;SDS011;17847;31.524;74.366;2023-05-10T10:36:23;7.43;;;4.07;;
31224;SDS011;17847;31.524;74.366;2023-05-10T10:38:59;13.93;;;3.80;;
31224;SDS011;17847;31.524;74.366;2023-05-10T10:41:33;12.57;;;4.30;;
31224;SDS011;17847;31.524;74.366;2023-05-10T10:52:43;8.23;;;3.75;;
31224;SDS011;17847;31.524;74.366;2023-05-10T10:57:53;12.95;;;3.58;;
31224;SDS011;17847;31.524;74.366;2023-05-10T11:03:04;13.55;;;4.05;;
31224;SDS011;17847;31.524;74.366;2023-05-10T11:05:48;15.10;;;3.88;;
31224;SDS011;17847;31.524;74.366;2023-05-10T11:08:30;10.65;;;4.10;;
31224;SDS011;17847;31.524;74.366;2023-05-10T11:11:05;10.82;;;3.92;;
31224;SDS011;17847;31.524;74.366;2023-05-10T11:13:45;11.07;;;3.67;;
31224;SDS011;17847;31.524;74.366;2023-05-10T11:16:19;7.93;;;3.13;;
31224;SDS011;17847;31.524;74.366;2023-05-10T11:18:53;7.53;;;3.17;;
31224;SDS011;17847;31.524;74.366;2023-05-10T11:21:31;11.52;;;3.25;;
31224;SDS011;17847;31.524;74.366;2023-05-10T11:24:03;11.20;;;3.80;;
31224;SDS011;17847;31.524;74.366;2023-05-10T11:26:42;15.07;;;4.32;;
31224;SDS011;17847;31.524;74.366;2023-05-10T11:29:12;13.95;;;3.67;;
31224;SDS011;17847;31.524;74.366;2023-05-10T11:31:43;10.63;;;4.03;;
31224;SDS011;17847;31.524;74.366;2023-05-10T11:34:26;12.10;;;3.60;;
31224;SDS011;17847;31.524;74.366;2023-05-10T11:37:01;10.43;;;3.70;;
31224;SDS011;17847;31.524;74.366;2023-05-10T11:39:31;7.70;;;3.75;;
31224;SDS011;17847;31.524;74.366;2023-05-10T11:42:01;12.70;;;3.90;;
31224;SDS011;17847;31.524;74.366;2023-05-10T11:44:31;23.60;;;6.85;;
31224;SDS011;17847;31.524;74.366;2023-05-10T11:47:01;17.95;;;6.50;;
31224;SDS011;17847;31.524;74.366;2023-05-10T11:49:31;13.25;;;6.60;;
31224;SDS011;17847;31.524;74.366;2023-05-10T11:52:08;16.92;;;5.40;;
31224;SDS011;17847;31.524;74.366;2023-05-10T11:54:50;19.55;;;5.05;;
31224;SDS011;17847;31.524;74.366;2023-05-10T11:57:25;8.48;;;4.18;;
31224;SDS011;17847;31.524;74.366;2023-05-10T11:59:56;10.38;;;4.30;;
31224;SDS011;17847;31.524;74.366;2023-05-10T12:02:25;14.10;;;4.13;;
31224;SDS011;17847;31.524;74.366;2023-05-10T12:04:55;12.65;;;3.72;;
31224;SDS011;17847;31.524;74.366;2023-05-10T12:07:27;11.85;;;4.15;;
31224;SDS011;17847;31.524;74.366;2023-05-10T12:10:07;9.52;;;4.53;;
31224;SDS011;17847;31.524;74.366;2023-05-10T12:12:46;13.15;;;4.60;;
31224;SDS011;17847;31.524;74.366;2023-05-10T12:15:17;11.15;;;4.53;;
31224;SDS011;17847;31.524;74.366;2023-05-10T12:17:50;15.93;;;4.32;;
31224;SDS011;17847;31.524;74.366;2023-05-10T12:20:26;10.40;;;4.00;;
31224;SDS011;17847;31.524;74.366;2023-05-10T12:23:00;17.90;;;6.03;;
31224;SDS011;17847;31.524;74.366;2023-05-10T12:25:32;14.63;;;4.95;;
31224;SDS011;17847;31.524;74.366;2023-05-10T12:28:03;14.35;;;5.40;;
31224;SDS011;17847;31.524;74.366;2023-05-10T12:30:35;16.60;;;5.72;;
31224;SDS011;17847;31.524;74.366;2023-05-10T12:33:09;21.33;;;5.88;;
31224;SDS011;17847;31.524;74.366;2023-05-10T12:35:45;20.75;;;9.43;;
31224;SDS011;17847;31.524;74.366;2023-05-10T12:38:26;27.92;;;14.68;;
31224;SDS011;17847;31.524;74.366;2023-05-10T12:40:59;52.80;;;25.88;;
31224;SDS011;17847;31.524;74.366;2023-05-10T12:43:30;57.75;;;25.77;;
31224;SDS011;17847;31.524;74.366;2023-05-10T12:46:09;41.67;;;23.42;;
31224;SDS011;17847;31.524;74.366;2023-05-10T12:48:42;42.25;;;23.67;;
31224;SDS011;17847;31.524;74.366;2023-05-10T12:51:14;33.25;;;18.52;;
31224;SDS011;17847;31.524;74.366;2023-05-10T12:53:47;32.92;;;16.38;;
31224;SDS011;17847;31.524;74.366;2023-05-10T12:56:16;28.40;;;15.00;;
31224;SDS011;17847;31.524;74.366;2023-05-10T12:58:46;28.98;;;14.70;;
31224;SDS011;17847;31.524;74.366;2023-05-10T13:01:16;35.55;;;16.58;;
31224;SDS011;17847;31.524;74.366;2023-05-10T13:03:45;38.13;;;15.52;;
31224;SDS011;17847;31.524;74.366;2023-05-10T13:06:15;19.15;;;11.13;;
31224;SDS011;17847;31.524;74.366;2023-05-10T13:08:44;18.95;;;8.93;;
31224;SDS011;17847;31.524;74.366;2023-05-10T13:11:13;22.90;;;11.90;;
31224;SDS011;17847;31.524;74.366;2023-05-10T13:13:45;38.45;;;15.90;;
31224;SDS011;17847;31.524;74.366;2023-05-10T13:16:14;33.60;;;16.42;;
31224;SDS011;17847;31.524;74.366;2023-05-10T13:18:43;32.33;;;16.58;;
31224;SDS011;17847;31.524;74.366;2023-05-10T13:21:13;40.60;;;16.50;;
31224;SDS011;17847;31.524;74.366;2023-05-10T13:23:43;34.00;;;15.25;;
31224;SDS011;17847;31.524;74.366;2023-05-10T13:26:12;27.77;;;12.30;;
31224;SDS011;17847;31.524;74.366;2023-05-10T13:28:41;19.20;;;10.30;;
31224;SDS011;17847;31.524;74.366;2023-05-10T13:31:10;20.55;;;8.32;;
31224;SDS011;17847;31.524;74.366;2023-05-10T13:33:40;19.67;;;6.60;;
31224;SDS011;17847;31.524;74.366;2023-05-10T13:36:09;13.13;;;5.97;;
31224;SDS011;17847;31.524;74.366;2023-05-10T13:38:38;16.52;;;5.82;;
31224;SDS011;17847;31.524;74.366;2023-05-10T13:41:08;17.30;;;6.30;;
31224;SDS011;17847;31.524;74.366;2023-05-10T13:43:40;21.92;;;7.45;;
31224;SDS011;17847;31.524;74.366;2023-05-10T13:46:09;21.05;;;6.43;;
31224;SDS011;17847;31.524;74.366;2023-05-10T13:48:38;21.27;;;6.03;;
31224;SDS011;17847;31.524;74.366;2023-05-10T13:51:08;19.02;;;6.10;;
31224;SDS011;17847;31.524;74.366;2023-05-10T13:53:37;15.43;;;6.30;;
31224;SDS011;17847;31.524;74.366;2023-05-10T13:56:06;17.05;;;6.38;;
31224;SDS011;17847;31.524;74.366;2023-05-10T13:58:36;15.73;;;5.85;;
31224;SDS011;17847;31.524;74.366;2023-05-10T14:01:05;8.93;;;4.72;;
31224;SDS011;17847;31.524;74.366;2023-05-10T14:03:35;15.90;;;5.85;;
31224;SDS011;17847;31.524;74.366;2023-05-10T14:06:04;17.05;;;5.53;;
31224;SDS011;17847;31.524;74.366;2023-05-10T14:08:35;14.20;;;5.70;;
31224;SDS011;17847;31.524;74.366;2023-05-10T14:11:05;20.77;;;5.95;;
31224;SDS011;17847;31.524;74.366;2023-05-10T14:13:34;16.90;;;6.18;;
31224;SDS011;17847;31.524;74.366;2023-05-10T14:16:04;17.25;;;6.10;;
31224;SDS011;17847;31.524;74.366;2023-05-10T14:18:33;20.15;;;6.38;;
31224;SDS011;17847;31.524;74.366;2023-05-10T14:21:03;13.07;;;6.00;;
31224;SDS011;17847;31.524;74.366;2023-05-10T14:23:32;22.25;;;6.60;;
31224;SDS011;17847;31.524;74.366;2023-05-10T14:26:02;17.90;;;6.65;;
31224;SDS011;17847;31.524;74.366;2023-05-10T14:28:31;20.55;;;6.93;;
31224;SDS011;17847;31.524;74.366;2023-05-10T14:31:01;15.45;;;6.00;;
31224;SDS011;17847;31.524;74.366;2023-05-10T14:33:31;20.90;;;6.72;;
31224;SDS011;17847;31.524;74.366;2023-05-10T14:36:00;13.60;;;6.07;;
31224;SDS011;17847;31.524;74.366;2023-05-10T14:38:31;20.02;;;7.50;;
31224;SDS011;17847;31.524;74.366;2023-05-10T14:41:01;27.00;;;8.18;;
31224;SDS011;17847;31.524;74.366;2023-05-10T14:43:30;28.10;;;8.65;;
31224;SDS011;17847;31.524;74.366;2023-05-10T14:45:59;27.50;;;7.40;;
31224;SDS011;17847;31.524;74.366;2023-05-10T14:48:29;18.92;;;7.85;;
31224;SDS011;17847;31.524;74.366;2023-05-10T14:50:59;23.58;;;7.57;;
31224;SDS011;17847;31.524;74.366;2023-05-10T14:53:28;25.92;;;7.97;;
31224;SDS011;17847;31.524;74.366;2023-05-10T14:55:58;20.73;;;8.13;;
31224;SDS011;17847;31.524;74.366;2023-05-10T14:58:29;13.13;;;7.45;;
31224;SDS011;17847;31.524;74.366;2023-05-10T15:01:00;23.13;;;8.57;;
31224;SDS011;17847;31.524;74.366;2023-05-10T15:03:30;20.70;;;8.68;;
31224;SDS011;17847;31.524;74.366;2023-05-10T15:06:00;26.15;;;9.38;;
31224;SDS011;17847;31.524;74.366;2023-05-10T15:08:29;29.13;;;9.70;;
31224;SDS011;17847;31.524;74.366;2023-05-10T15:11:00;23.10;;;8.38;;
31224;SDS011;17847;31.524;74.366;2023-05-10T15:13:29;27.33;;;9.25;;
31224;SDS011;17847;31.524;74.366;2023-05-10T15:15:58;27.98;;;9.55;;
31224;SDS011;17847;31.524;74.366;2023-05-10T15:18:28;26.30;;;9.70;;
31224;SDS011;17847;31.524;74.366;2023-05-10T15:20:58;19.63;;;9.55;;
31224;SDS011;17847;31.524;74.366;2023-05-10T15:23:27;24.98;;;9.80;;